Time;durP1;ratioP1;P1;durP2;ratioP2;P2;SDS_P1;SDS_P2;PMS_P1;PMS_P2;Temp;Humidity;BMP_temperature;BMP_pressure;BME280_temperature;BME280_humidity;BME280_pressure;Samples;Min_cycle;Max_cycle;Signal;HPM_P1;HPM_P2
2021/08/20 00:03:16;;;;;;;7.50;5.80;;;;;;;18.08;100.00;99070.66;10337545;28;20197;-77
2021/08/20 00:08:35;;;;;;;5.97;5.33;;;;;;;18.14;100.00;99077.94;10337142;28;20205;-77
2021/08/20 00:13:54;;;;;;;6.63;6.03;;;;;;;18.01;100.00;99080.00;10335060;28;20283;-77
2021/08/20 00:19:14;;;;;;;10.70;5.90;;;;;;;17.96;100.00;99082.56;10337032;28;20177;-77
2021/08/20 00:24:34;;;;;;;5.77;5.17;;;;;;;17.89;100.00;99086.34;10336885;28;20173;-77
2021/08/20 00:29:53;;;;;;;6.50;5.37;;;;;;;17.92;100.00;99081.91;10334885;28;20201;-77
2021/08/20 00:35:13;;;;;;;6.90;6.30;;;;;;;17.96;100.00;99085.34;10335980;28;20181;-76
2021/08/20 00:40:33;;;;;;;7.20;6.50;;;;;;;17.97;100.00;99082.09;10333393;28;20166;-77
2021/08/20 00:45:56;;;;;;;5.83;5.43;;;;;;;17.99;100.00;99078.91;10334997;28;20177;-76
2021/08/20 00:51:20;;;;;;;5.47;5.07;;;;;;;17.98;100.00;99071.78;10334352;28;20212;-76
2021/08/20 00:56:40;;;;;;;6.83;6.20;;;;;;;17.96;100.00;99074.22;10334340;28;20177;-75
2021/08/20 01:02:01;;;;;;;7.53;5.90;;;;;;;17.82;100.00;99077.47;10334550;28;20177;-77
2021/08/20 01:07:20;;;;;;;6.37;5.73;;;;;;;17.80;100.00;99069.59;10334808;28;20204;-76
2021/08/20 01:12:41;;;;;;;6.73;5.60;;;;;;;17.77;100.00;99064.91;10333769;28;20221;-76
2021/08/20 01:18:00;;;;;;;5.77;5.27;;;;;;;17.73;100.00;99067.00;10334946;28;20181;-76
2021/08/20 01:23:21;;;;;;;5.80;5.40;;;;;;;17.74;100.00;99059.47;10334667;28;20173;-75
2021/08/20 01:28:40;;;;;;;5.80;5.40;;;;;;;17.83;100.00;99054.75;10332973;28;20213;-75
2021/08/20 01:33:59;;;;;;;6.93;6.30;;;;;;;17.81;100.00;99054.41;10333957;28;20185;-76
2021/08/20 01:39:18;;;;;;;6.20;5.70;;;;;;;17.75;100.00;99045.09;10334091;28;20185;-76
2021/08/20 01:44:36;;;;;;;7.40;6.03;;;;;;;17.74;100.00;99051.09;10330973;28;20221;-76
2021/08/20 01:49:56;;;;;;;6.17;5.63;;;;;;;17.61;100.00;99041.97;10333429;28;20292;-76
2021/08/20 01:55:15;;;;;;;6.03;5.53;;;;;;;17.57;100.00;99044.13;10331677;28;20181;-76
2021/08/20 02:00:34;;;;;;;5.30;4.90;;;;;;;17.59;100.00;99038.88;10332595;28;20173;-76
2021/08/20 02:05:53;;;;;;;6.90;6.40;;;;;;;17.66;100.00;99036.63;10333494;28;20726;-75
2021/08/20 02:11:12;;;;;;;7.60;7.00;;;;;;;17.80;100.00;99044.53;10331158;28;20683;-77
2021/08/20 02:16:31;;;;;;;7.87;7.03;;;;;;;17.56;100.00;99034.22;10332215;28;20189;-77
2021/08/20 02:21:50;;;;;;;7.03;6.17;;;;;;;17.47;100.00;99036.88;10339740;28;20209;-78
2021/08/20 02:27:09;;;;;;;7.60;6.90;;;;;;;17.68;100.00;99039.75;10339887;28;20295;-78
2021/08/20 02:32:27;;;;;;;6.50;5.90;;;;;;;17.47;100.00;99048.00;10341184;28;20742;-76
2021/08/20 02:37:46;;;;;;;7.00;6.47;;;;;;;17.43;100.00;99052.13;10340132;28;20174;-78
2021/08/20 02:43:05;;;;;;;6.63;5.93;;;;;;;17.44;100.00;99048.91;10338130;28;20233;-75
2021/08/20 02:48:25;;;;;;;7.17;6.57;;;;;;;17.49;100.00;99044.78;10340369;28;20209;-77
2021/08/20 02:53:45;;;;;;;9.10;6.40;;;;;;;17.50;100.00;99046.34;10339503;28;21031;-76
2021/08/20 02:59:04;;;;;;;6.93;6.10;;;;;;;17.34;100.00;99038.91;10338769;28;20197;-75
2021/08/20 03:04:25;;;;;;;6.20;5.70;;;;;;;17.36;100.00;99039.25;10339793;28;20185;-77
2021/08/20 03:09:44;;;;;;;6.33;5.83;;;;;;;17.37;100.00;99057.47;10339258;28;20300;-75
2021/08/20 03:15:04;;;;;;;6.67;6.07;;;;;;;17.30;100.00;99038.22;10337252;28;20353;-76
2021/08/20 03:20:23;;;;;;;6.13;5.63;;;;;;;17.20;100.00;99041.31;10338449;28;20248;-77
2021/08/20 03:25:42;;;;;;;6.67;6.17;;;;;;;17.17;100.00;99045.75;10336779;28;20187;-75
2021/08/20 03:31:01;;;;;;;9.73;6.70;;;;;;;17.17;100.00;99040.19;10336112;28;20296;-77
2021/08/20 03:36:22;;;;;;;8.40;7.60;;;;;;;17.28;100.00;99060.16;10337414;28;20177;-77
2021/08/20 03:41:42;;;;;;;6.50;5.90;;;;;;;17.34;100.00;99054.78;10337032;28;20221;-77
2021/08/20 03:47:00;;;;;;;6.87;6.27;;;;;;;17.25;100.00;99062.97;10336928;28;20199;-77
2021/08/20 03:52:20;;;;;;;7.30;6.60;;;;;;;17.27;100.00;99060.53;10338305;28;20181;-75
2021/08/20 03:57:39;;;;;;;6.20;5.80;;;;;;;17.12;100.00;99054.63;10335218;28;20185;-77
2021/08/20 04:02:58;;;;;;;7.93;6.40;;;;;;;17.10;100.00;99056.31;10337812;28;20576;-78
2021/08/20 04:08:17;;;;;;;7.47;6.40;;;;;;;17.23;100.00;99069.00;10336397;28;20303;-76
2021/08/20 04:13:37;;;;;;;8.20;7.40;;;;;;;17.13;100.00;99067.31;10336256;28;20201;-76
2021/08/20 04:18:57;;;;;;;7.73;6.93;;;;;;;17.14;100.00;99068.88;10336217;28;20178;-76
2021/08/20 04:24:17;;;;;;;8.90;7.43;;;;;;;17.18;100.00;99077.09;10335946;28;20232;-76
2021/08/20 04:29:36;;;;;;;7.07;6.40;;;;;;;17.14;100.00;99077.22;10334181;28;20205;-77
2021/08/20 04:34:55;;;;;;;6.63;6.17;;;;;;;17.14;100.00;99073.66;10336562;28;20644;-76
2021/08/20 04:40:14;;;;;;;7.50;6.80;;;;;;;17.18;100.00;99077.91;10334747;28;20212;-75
2021/08/20 04:45:33;;;;;;;7.10;6.50;;;;;;;17.21;100.00;99085.34;10335584;28;20564;-76
2021/08/20 04:50:53;;;;;;;7.40;6.70;;;;;;;17.25;100.00;99080.47;10334428;28;20577;-75
2021/08/20 04:56:12;;;;;;;8.70;6.90;;;;;;;17.43;100.00;99085.50;10334391;28;20632;-78
2021/08/20 05:01:31;;;;;;;9.13;7.10;;;;;;;17.30;100.00;99096.63;10335606;28;20208;-76
2021/08/20 05:06:50;;;;;;;7.20;6.60;;;;;;;17.34;100.00;99093.72;10335131;28;20596;-78
2021/08/20 05:12:09;;;;;;;8.83;6.73;;;;;;;17.25;100.00;99096.34;10332287;28;20201;-76
2021/08/20 05:17:29;;;;;;;6.93;6.43;;;;;;;17.21;100.00;99088.13;10332898;28;20270;-77
2021/08/20 05:22:51;;;;;;;7.30;6.70;;;;;;;17.42;100.00;99097.84;10320622;28;20177;-75
2021/08/20 05:28:12;;;;;;;7.20;6.03;;;;;;;17.28;100.00;99112.19;10306596;28;20217;-76
2021/08/20 05:33:31;;;;;;;7.87;6.13;;;;;;;17.31;100.00;99123.19;10326528;28;20271;-76
2021/08/20 05:38:50;;;;;;;9.17;8.03;;;;;;;17.27;100.00;99111.38;10302470;28;20169;-76
2021/08/20 05:44:09;;;;;;;7.67;6.97;;;;;;;17.24;100.00;99103.91;10331304;28;20220;-75
2021/08/20 05:49:28;;;;;;;7.80;7.13;;;;;;;17.29;100.00;99102.63;10298563;28;20218;-76
2021/08/20 05:54:47;;;;;;;13.93;7.87;;;;;;;17.53;100.00;99107.41;10320984;28;20589;-77
2021/08/20 06:00:08;;;;;;;7.53;6.93;;;;;;;17.50;100.00;99108.31;10331323;28;20184;-79
2021/08/20 06:05:27;;;;;;;9.17;8.10;;;;;;;17.38;100.00;99120.19;10332382;28;20169;-76
2021/08/20 06:10:47;;;;;;;8.47;7.67;;;;;;;17.47;100.00;99125.13;10330522;28;20216;-76
2021/08/20 06:16:07;;;;;;;8.47;7.63;;;;;;;17.59;100.00;99134.25;10332284;28;20205;-76
2021/08/20 06:21:25;;;;;;;9.70;7.40;;;;;;;17.59;100.00;99133.47;10332569;28;20178;-76
2021/08/20 06:26:46;;;;;;;10.07;9.07;;;;;;;17.57;100.00;99135.91;10331901;28;20177;-76
2021/08/20 06:32:05;;;;;;;9.10;7.93;;;;;;;17.58;100.00;99131.13;10331895;28;20182;-78
2021/08/20 06:37:24;;;;;;;8.43;7.63;;;;;;;17.60;100.00;99138.59;10332801;28;20217;-77
2021/08/20 06:42:43;;;;;;;8.57;7.60;;;;;;;17.63;100.00;99145.25;10331023;28;20225;-77
2021/08/20 06:48:02;;;;;;;8.93;8.03;;;;;;;17.73;100.00;99138.59;10331533;28;20212;-77
2021/08/20 06:53:22;;;;;;;8.50;7.50;;;;;;;17.72;100.00;99139.81;10330626;28;20185;-78
2021/08/20 06:58:41;;;;;;;7.83;6.90;;;;;;;17.81;100.00;99137.13;10330286;28;20181;-78
2021/08/20 07:04:01;;;;;;;8.90;8.00;;;;;;;17.82;100.00;99144.28;10330920;28;20296;-77
2021/08/20 07:09:20;;;;;;;9.20;8.07;;;;;;;17.88;100.00;99157.19;10339488;28;20730;-78
2021/08/20 07:14:39;;;;;;;8.53;7.57;;;;;;;17.84;100.00;99147.41;10338503;28;20177;-77
2021/08/20 07:19:58;;;;;;;8.17;7.37;;;;;;;18.17;100.00;99151.50;10339563;28;20178;-78
2021/08/20 07:25:18;;;;;;;8.93;7.70;;;;;;;18.47;100.00;99143.28;10338469;28;20185;-78
2021/08/20 07:30:37;;;;;;;7.47;6.77;;;;;;;18.50;100.00;99143.16;10337314;28;20216;-78
2021/08/20 07:35:57;;;;;;;8.67;6.93;;;;;;;19.12;100.00;99156.13;10337933;28;20181;-78
2021/08/20 07:41:16;;;;;;;8.33;7.53;;;;;;;19.54;97.00;99160.09;10337274;28;20312;-77
2021/08/20 07:46:35;;;;;;;8.17;7.37;;;;;;;19.76;95.06;99160.81;10338483;28;20189;-77
2021/08/20 07:51:54;;;;;;;7.03;6.43;;;;;;;20.00;91.95;99168.22;10337277;28;20189;-77
2021/08/20 07:57:12;;;;;;;6.17;5.63;;;;;;;20.74;88.59;99163.13;10335719;28;20189;-77
2021/08/20 08:02:31;;;;;;;7.37;6.67;;;;;;;20.75;90.00;99161.88;10336921;28;20614;-77
2021/08/20 08:07:52;;;;;;;7.23;6.57;;;;;;;20.64;82.63;99164.34;10337331;28;20213;-77
2021/08/20 08:13:12;;;;;;;9.13;6.87;;;;;;;21.56;77.79;99157.81;10336180;28;20237;-78
2021/08/20 08:18:31;;;;;;;10.40;6.40;;;;;;;22.42;71.15;99160.41;10336369;28;20178;-76
2021/08/20 08:23:50;;;;;;;7.20;6.60;;;;;;;22.01;70.67;99154.84;10336881;28;20640;-77
2021/08/20 08:29:08;;;;;;;12.40;8.73;;;;;;;21.38;72.97;99162.66;10335223;28;20739;-77
2021/08/20 08:34:27;;;;;;;8.67;6.23;;;;;;;22.02;71.78;99159.97;10336680;28;20185;-78
2021/08/20 08:39:46;;;;;;;6.20;5.70;;;;;;;22.63;69.59;99171.34;10334449;28;20257;-77
2021/08/20 08:45:06;;;;;;;6.03;5.53;;;;;;;23.18;66.62;99163.28;10334200;28;20225;-77
2021/08/20 08:50:25;;;;;;;7.00;5.90;;;;;;;21.81;72.08;99169.38;10335537;28;20217;-76
2021/08/20 08:55:52;;;;;;;7.27;6.57;;;;;;;22.55;69.11;99166.56;10332732;28;20189;-77
2021/08/20 09:01:28;;;;;;;8.20;6.53;;;;;;;23.66;66.50;99155.00;10335483;28;20249;-77
2021/08/20 09:06:50;;;;;;;6.20;5.53;;;;;;;23.62;64.02;99159.25;10335351;28;20186;-77
2021/08/20 09:12:09;;;;;;;6.33;5.80;;;;;;;23.00;66.16;99166.22;10333711;28;20590;-77
2021/08/20 09:17:33;;;;;;;5.37;5.07;;;;;;;23.33;63.06;99169.69;10333848;28;20185;-76
2021/08/20 09:22:54;;;;;;;7.40;6.60;;;;;;;23.88;63.82;99166.63;10334368;28;20205;-77
2021/08/20 09:28:21;;;;;;;4.83;4.43;;;;;;;24.43;58.70;99161.84;10333165;28;20615;-77
2021/08/20 09:33:43;;;;;;;5.70;5.20;;;;;;;24.62;58.06;99160.34;10334428;28;20173;-76
2021/08/20 09:39:02;;;;;;;4.17;3.90;;;;;;;24.56;54.94;99156.66;10333292;28;20648;-75
2021/08/20 09:44:25;;;;;;;5.63;4.83;;;;;;;23.61;56.87;99166.91;10331182;28;20595;-77
2021/08/20 09:49:58;;;;;;;5.63;5.17;;;;;;;22.92;61.74;99173.47;10332581;28;20213;-76
2021/08/20 09:55:37;;;;;;;6.23;5.73;;;;;;;24.14;60.66;99153.50;10333637;28;20228;-76
2021/08/20 10:00:59;;;;;;;6.80;6.17;;;;;;;23.56;62.04;99159.16;10333547;28;20552;-76
2021/08/20 10:06:18;;;;;;;4.67;4.27;;;;;;;24.55;58.91;99163.56;10333608;28;20252;-75
2021/08/20 10:11:58;;;;;;;5.13;4.73;;;;;;;25.43;57.17;99145.69;10330880;28;20696;-76
2021/08/20 10:17:17;;;;;;;4.83;4.33;;;;;;;24.95;53.21;99153.06;10327953;28;20241;-76
2021/08/20 10:22:36;;;;;;;5.27;4.97;;;;;;;25.09;58.10;99146.56;10293036;28;20181;-76
2021/08/20 10:27:56;;;;;;;5.20;4.80;;;;;;;26.36;50.10;99135.94;10291295;28;20210;-75
2021/08/20 10:33:29;;;;;;;4.70;4.30;;;;;;;26.28;52.30;99145.38;10327244;28;20216;-75
2021/08/20 10:38:49;;;;;;;8.77;5.17;;;;;;;25.66;52.28;99139.75;10333010;28;20173;-76
2021/08/20 10:44:10;;;;;;;4.60;4.20;;;;;;;26.10;54.00;99145.75;10339136;28;20224;-77
2021/08/20 10:49:37;;;;;;;5.00;4.50;;;;;;;26.07;51.15;99146.78;10339402;28;20205;-78
2021/08/20 10:54:56;;;;;;;6.13;4.50;;;;;;;26.17;50.35;99143.25;10339205;28;20256;-77
2021/08/20 11:00:18;;;;;;;4.03;3.83;;;;;;;27.69;49.06;99139.53;10338966;28;20173;-76
2021/08/20 11:05:45;;;;;;;3.97;3.70;;;;;;;27.09;46.04;99130.94;10338498;28;20177;-76
2021/08/20 11:11:27;;;;;;;5.37;4.20;;;;;;;26.57;46.95;99125.31;10337712;28;20221;-76
2021/08/20 11:16:46;;;;;;;3.93;3.73;;;;;;;27.10;46.43;99138.13;10338882;28;20262;-76
2021/08/20 11:22:17;;;;;;;3.80;3.50;;;;;;;28.27;43.97;99129.25;10338515;28;20173;-77
2021/08/20 11:27:39;;;;;;;3.47;3.27;;;;;;;27.39;43.28;99134.06;10338106;28;20209;-76
2021/08/20 11:33:07;;;;;;;3.53;3.30;;;;;;;25.81;47.48;99141.19;10339000;28;20185;-75
2021/08/20 11:38:29;;;;;;;3.70;3.50;;;;;;;25.74;49.08;99151.34;10337813;28;20174;-78
2021/08/20 11:43:53;;;;;;;3.50;3.20;;;;;;;26.82;46.97;99147.75;10335371;28;20300;-76
2021/08/20 11:49:24;;;;;;;7.83;3.73;;;;;;;26.97;47.06;99139.84;10337116;28;20723;-77
2021/08/20 11:54:42;;;;;;;2.93;2.73;;;;;;;27.76;45.28;99132.59;10336025;28;20543;-76
2021/08/20 12:00:01;;;;;;;3.03;2.87;;;;;;;27.90;42.90;99131.56;10335924;28;20181;-76
2021/08/20 12:05:22;;;;;;;3.87;2.70;;;;;;;26.65;44.27;99136.38;10337049;28;20169;-77
2021/08/20 12:10:43;;;;;;;2.70;2.50;;;;;;;27.00;45.84;99133.97;10334598;28;20209;-76
2021/08/20 12:16:03;;;;;;;3.03;2.83;;;;;;;27.26;42.81;99136.63;10337483;28;20178;-77
2021/08/20 12:21:22;;;;;;;2.00;1.90;;;;;;;27.29;43.56;99133.56;10337222;28;20189;-76
2021/08/20 12:26:41;;;;;;;2.07;1.87;;;;;;;27.20;42.59;99133.00;10335645;28;20209;-76
2021/08/20 12:32:00;;;;;;;1.70;1.60;;;;;;;26.35;44.47;99139.25;10335365;28;20299;-75
2021/08/20 12:37:19;;;;;;;1.97;1.80;;;;;;;26.16;43.75;99143.78;10336470;28;20189;-77
2021/08/20 12:42:46;;;;;;;2.53;2.33;;;;;;;27.20;44.31;99141.47;10334466;28;20225;-77
2021/08/20 12:48:08;;;;;;;3.03;2.40;;;;;;;28.31;42.33;99136.94;10335962;28;20197;-77
2021/08/20 12:53:29;;;;;;;2.33;2.13;;;;;;;28.03;40.03;99129.00;10334888;28;20185;-77
2021/08/20 12:58:58;;;;;;;1.67;1.53;;;;;;;26.70;41.40;99143.31;10334505;28;20644;-77
2021/08/20 13:04:17;;;;;;;1.90;1.80;;;;;;;25.65;45.21;99146.66;10334250;28;20230;-76
2021/08/20 13:09:36;;;;;;;1.90;1.80;;;;;;;25.80;44.79;99150.16;10334796;28;20217;-77
2021/08/20 13:14:55;;;;;;;1.87;1.63;;;;;;;26.89;43.21;99147.25;10332983;28;20260;-76
2021/08/20 13:20:14;;;;;;;1.87;1.67;;;;;;;26.64;42.33;99146.13;10334109;28;20173;-78
2021/08/20 13:25:33;;;;;;;2.33;1.60;;;;;;;26.69;44.29;99145.38;10333546;28;20185;-76
2021/08/20 13:30:52;;;;;;;2.00;1.60;;;;;;;26.33;43.70;99136.19;10334240;28;20288;-76
2021/08/20 13:36:11;;;;;;;1.70;1.60;;;;;;;27.14;41.06;99132.97;10334329;28;20203;-76
2021/08/20 13:41:33;;;;;;;1.80;1.70;;;;;;;27.49;43.19;99136.13;10332270;28;20229;-76
2021/08/20 13:46:52;;;;;;;1.80;1.63;;;;;;;26.87;44.74;99135.69;10334186;28;20540;-76
2021/08/20 13:52:12;;;;;;;2.13;1.93;;;;;;;27.03;44.53;99138.63;10332813;28;20193;-77
2021/08/20 13:57:32;;;;;;;1.60;1.50;;;;;;;26.27;45.49;99141.00;10332570;28;20185;-76
2021/08/20 14:02:51;;;;;;;2.33;1.90;;;;;;;26.98;44.01;99132.91;10333321;28;20189;-76
2021/08/20 14:08:10;;;;;;;3.40;1.80;;;;;;;27.54;40.98;99132.56;10332093;28;20213;-75
2021/08/20 14:13:29;;;;;;;2.00;1.90;;;;;;;27.07;40.90;99130.66;10330007;28;20264;-75
2021/08/20 14:18:49;;;;;;;2.40;2.20;;;;;;;27.33;41.50;99127.66;10333258;28;20181;-75
2021/08/20 14:24:08;;;;;;;2.63;1.90;;;;;;;26.88;43.18;99148.53;10332196;28;20197;-76
2021/08/20 14:29:27;;;;;;;3.60;1.97;;;;;;;27.71;41.44;99136.19;10331647;28;20614;-76
2021/08/20 14:34:46;;;;;;;1.70;1.60;;;;;;;27.78;40.04;99135.69;10332186;28;20256;-76
2021/08/20 14:40:06;;;;;;;1.93;1.70;;;;;;;28.30;40.39;99149.53;10332463;28;20185;-77
2021/08/20 14:45:25;;;;;;;1.90;1.80;;;;;;;27.99;40.18;99143.38;10332419;28;20205;-75
2021/08/20 14:50:45;;;;;;;3.90;1.80;;;;;;;28.17;40.49;99159.06;10332136;28;20212;-75
2021/08/20 14:56:05;;;;;;;2.70;1.90;;;;;;;28.31;39.21;99153.16;10331330;28;20253;-75
2021/08/20 15:01:24;;;;;;;2.30;2.10;;;;;;;28.83;37.20;99148.38;10331438;28;20169;-75
2021/08/20 15:06:44;;;;;;;14.33;2.27;;;;;;;28.71;37.73;99153.28;10331455;28;20268;-77
2021/08/20 15:12:03;;;;;;;4.60;2.23;;;;;;;29.19;37.80;99159.28;10330147;28;20225;-77
2021/08/20 15:17:22;;;;;;;1.60;1.50;;;;;;;28.53;39.08;99153.84;10331347;28;20190;-77
2021/08/20 15:22:41;;;;;;;1.87;1.77;;;;;;;28.44;39.30;99159.03;10332150;28;20189;-76
2021/08/20 15:28:00;;;;;;;1.60;1.50;;;;;;;28.15;39.06;99161.63;10333983;28;20667;-77
2021/08/20 15:33:19;;;;;;;1.70;1.60;;;;;;;26.56;42.67;99169.69;10338058;28;20711;-76
2021/08/20 15:38:38;;;;;;;1.87;1.77;;;;;;;26.47;42.86;99169.13;10338608;28;20205;-76
2021/08/20 15:43:57;;;;;;;1.90;1.80;;;;;;;26.00;43.33;99170.56;10336166;28;20710;-76
2021/08/20 15:49:16;;;;;;;5.30;2.00;;;;;;;26.61;43.39;99177.44;10338021;28;20209;-75
2021/08/20 15:54:36;;;;;;;2.10;1.90;;;;;;;27.84;40.51;99179.63;10338354;28;20181;-76
2021/08/20 15:59:55;;;;;;;2.20;2.03;;;;;;;27.40;41.51;99183.66;10336622;28;20174;-76
2021/08/20 16:05:14;;;;;;;2.40;2.20;;;;;;;27.18;41.15;99172.31;10337519;28;20265;-74
2021/08/20 16:10:34;;;;;;;2.40;2.20;;;;;;;27.58;40.06;99169.81;10335397;28;20217;-75
2021/08/20 16:15:53;;;;;;;3.20;2.90;;;;;;;27.51;41.10;99173.16;10331397;28;20190;-76
2021/08/20 16:21:12;;;;;;;2.73;2.53;;;;;;;26.97;40.34;99177.34;10336823;28;20185;-76
2021/08/20 16:26:31;;;;;;;2.57;2.37;;;;;;;26.51;40.50;99178.09;10335317;28;20181;-75
2021/08/20 16:31:51;;;;;;;3.40;2.20;;;;;;;26.96;41.29;99181.44;10334825;28;20209;-75
2021/08/20 16:37:10;;;;;;;3.40;3.20;;;;;;;26.90;41.00;99183.44;10334520;28;20599;-75
2021/08/20 16:42:31;;;;;;;4.00;3.80;;;;;;;25.41;43.98;99182.00;10333695;28;20252;-76
2021/08/20 16:47:50;;;;;;;4.87;4.57;;;;;;;24.84;44.26;99185.94;10335031;28;20656;-75
2021/08/20 16:53:09;;;;;;;3.13;2.93;;;;;;;24.32;46.56;99195.41;10331308;28;20186;-74
2021/08/20 16:58:28;;;;;;;3.90;3.70;;;;;;;24.55;46.26;99198.09;10327004;28;20276;-75
2021/08/20 17:03:47;;;;;;;7.87;7.37;;;;;;;24.50;46.17;99201.63;10331299;28;20261;-74
2021/08/20 17:09:06;;;;;;;4.10;3.90;;;;;;;24.06;48.83;99200.13;10301301;28;20691;-75
2021/08/20 17:14:25;;;;;;;3.83;3.53;;;;;;;23.95;49.97;99202.75;10302326;28;20193;-74
2021/08/20 17:19:43;;;;;;;4.03;3.63;;;;;;;23.83;50.90;99198.19;10293625;28;20186;-74
2021/08/20 17:25:04;;;;;;;4.27;3.97;;;;;;;23.64;51.99;99196.84;10323804;28;20177;-74
2021/08/20 17:30:23;;;;;;;4.17;3.87;;;;;;;23.65;53.25;99195.56;10312849;28;20209;-75
2021/08/20 17:35:42;;;;;;;5.03;4.63;;;;;;;23.46;53.37;99197.00;10320388;28;20573;-73
2021/08/20 17:41:01;;;;;;;5.00;4.23;;;;;;;23.62;53.74;99192.97;10332973;28;20221;-76
2021/08/20 17:46:21;;;;;;;5.20;4.20;;;;;;;24.89;50.25;99202.91;10319939;28;20178;-76
2021/08/20 17:51:40;;;;;;;4.03;3.70;;;;;;;24.07;52.24;99198.09;10328598;28;20296;-76
2021/08/20 17:56:58;;;;;;;6.83;6.23;;;;;;;23.34;55.04;99200.84;10332447;28;20178;-76
2021/08/20 18:02:21;;;;;;;7.50;5.80;;;;;;;22.90;58.30;99215.25;10332890;28;20189;-76
2021/08/20 18:07:40;;;;;;;23.03;20.43;;;;;;;22.55;59.50;99211.41;10324673;28;20259;-76
2021/08/20 18:12:59;;;;;;;6.70;4.40;;;;;;;22.46;60.38;99219.13;10332087;28;20174;-75
2021/08/20 18:18:18;;;;;;;4.53;4.10;;;;;;;22.03;62.84;99217.56;10333276;28;20181;-77
2021/08/20 18:23:37;;;;;;;5.40;5.10;;;;;;;21.52;65.45;99227.16;10333044;28;20177;-76
2021/08/20 18:28:57;;;;;;;5.20;4.80;;;;;;;21.34;65.22;99226.41;10330159;28;20217;-76
2021/08/20 18:34:16;;;;;;;3.80;3.50;;;;;;;21.00;66.98;99240.72;10331964;28;20177;-77
2021/08/20 18:39:35;;;;;;;20.10;14.53;;;;;;;20.78;68.88;99242.84;10331928;28;20170;-76
2021/08/20 18:44:54;;;;;;;9.90;6.20;;;;;;;20.72;69.52;99246.72;10329978;28;20213;-76
2021/08/20 18:50:13;;;;;;;11.20;6.63;;;;;;;20.60;70.78;99258.78;10331396;28;20217;-75
2021/08/20 18:55:32;;;;;;;18.83;16.10;;;;;;;20.47;71.79;99255.34;10330419;28;20269;-75
2021/08/20 19:00:51;;;;;;;8.13;6.80;;;;;;;20.22;71.91;99264.69;10332669;28;20182;-76
2021/08/20 19:06:10;;;;;;;7.67;5.83;;;;;;;19.94;73.35;99267.03;10339953;28;20197;-76
2021/08/20 19:11:29;;;;;;;8.37;4.40;;;;;;;19.73;73.93;99278.97;10336526;28;20213;-75
2021/08/20 19:16:52;;;;;;;5.27;4.70;;;;;;;19.63;74.79;99274.56;10338825;28;20181;-76
2021/08/20 19:22:13;;;;;;;7.43;5.67;;;;;;;19.49;75.40;99275.09;10338506;28;20181;-75
2021/08/20 19:27:33;;;;;;;8.63;5.90;;;;;;;19.28;75.05;99276.63;10338108;28;20178;-75
2021/08/20 19:32:52;;;;;;;6.33;5.80;;;;;;;19.17;76.98;99283.81;10338078;28;20177;-75
2021/08/20 19:38:11;;;;;;;6.13;5.47;;;;;;;19.12;77.45;99289.19;10338997;28;20592;-75
2021/08/20 19:43:30;;;;;;;7.33;5.80;;;;;;;18.73;79.42;99287.72;10335541;28;20629;-75
2021/08/20 19:48:49;;;;;;;5.70;5.17;;;;;;;18.54;80.61;99294.31;10338181;28;20205;-76
2021/08/20 19:54:08;;;;;;;6.73;6.03;;;;;;;18.42;81.25;99302.66;10337337;28;20173;-75
2021/08/20 19:59:28;;;;;;;6.47;5.87;;;;;;;18.20;81.40;99307.31;10335876;28;20223;-74
2021/08/20 20:04:47;;;;;;;10.50;9.27;;;;;;;18.15;82.18;99316.19;10336926;28;20739;-76
2021/08/20 20:10:08;;;;;;;8.23;7.43;;;;;;;18.11;82.97;99317.53;10335986;28;20209;-76
2021/08/20 20:15:27;;;;;;;11.27;7.77;;;;;;;18.23;84.00;99314.03;10336138;28;20169;-75
2021/08/20 20:20:46;;;;;;;7.63;6.90;;;;;;;18.06;84.82;99334.78;10336376;28;20185;-77
2021/08/20 20:26:06;;;;;;;7.47;6.87;;;;;;;17.78;86.25;99324.47;10334958;28;20181;-76
2021/08/20 20:31:26;;;;;;;7.07;6.37;;;;;;;17.67;86.44;99318.44;10335412;28;20240;-76
2021/08/20 20:36:46;;;;;;;8.50;5.90;;;;;;;17.55;87.32;99321.19;10336842;28;20182;-76
2021/08/20 20:42:05;;;;;;;7.50;6.93;;;;;;;17.22;88.66;99314.88;10334696;28;20221;-75
2021/08/20 20:47:24;;;;;;;14.57;9.67;;;;;;;17.13;89.79;99327.88;10335287;28;20264;-76
2021/08/20 20:52:43;;;;;;;37.57;26.40;;;;;;;17.26;89.92;99334.25;10335074;28;20178;-76
2021/08/20 20:58:03;;;;;;;6.40;5.90;;;;;;;17.07;90.28;99335.19;10334576;28;20177;-76
2021/08/20 21:03:23;;;;;;;18.83;16.83;;;;;;;16.85;91.34;99346.03;10335542;28;20170;-74
2021/08/20 21:08:42;;;;;;;20.10;15.43;;;;;;;16.62;94.38;99347.44;10333980;28;20612;-76
2021/08/20 21:14:01;;;;;;;10.40;9.30;;;;;;;16.63;93.20;99346.22;10334081;28;20177;-76
2021/08/20 21:19:20;;;;;;;7.43;6.70;;;;;;;16.64;91.46;99345.78;10334084;28;20177;-75
2021/08/20 21:24:39;;;;;;;16.67;11.23;;;;;;;16.75;92.10;99348.28;10334744;28;20632;-75
2021/08/20 21:29:59;;;;;;;13.07;10.30;;;;;;;16.51;93.78;99352.44;10332129;28;20209;-75
2021/08/20 21:35:18;;;;;;;8.13;7.33;;;;;;;16.17;96.73;99355.56;10333223;28;20173;-76
2021/08/20 21:40:37;;;;;;;8.27;7.30;;;;;;;16.02;98.27;99347.97;10332577;28;20185;-76
2021/08/20 21:45:56;;;;;;;7.53;6.70;;;;;;;15.98;96.49;99350.03;10333162;28;20288;-76
2021/08/20 21:51:15;;;;;;;8.17;7.47;;;;;;;16.01;97.66;99351.94;10333517;28;20205;-75
2021/08/20 21:56:34;;;;;;;10.50;8.60;;;;;;;15.89;98.11;99355.38;10331600;28;20177;-76
2021/08/20 22:01:54;;;;;;;17.33;12.27;;;;;;;15.76;99.84;99362.00;10332805;28;20533;-75
2021/08/20 22:07:13;;;;;;;11.60;8.70;;;;;;;15.78;99.59;99359.59;10333510;28;20217;-75
2021/08/20 22:12:32;;;;;;;8.93;7.30;;;;;;;15.69;99.20;99357.38;10330557;28;20185;-75
2021/08/20 22:17:52;;;;;;;9.07;6.57;;;;;;;15.70;98.59;99360.94;10333521;28;20200;-74
2021/08/20 22:23:13;;;;;;;6.90;6.20;;;;;;;15.61;98.52;99355.94;10332270;28;20177;-74
2021/08/20 22:28:32;;;;;;;9.20;6.27;;;;;;;15.40;99.51;99361.09;10331923;28;20675;-74
2021/08/20 22:33:51;;;;;;;11.27;7.03;;;;;;;15.43;98.06;99363.81;10332056;28;20169;-74
2021/08/20 22:39:12;;;;;;;7.50;6.70;;;;;;;15.29;99.11;99366.84;10338795;28;20173;-75
2021/08/20 22:44:31;;;;;;;7.53;6.83;;;;;;;15.13;99.74;99356.81;10338096;28;20259;-74
2021/08/20 22:49:50;;;;;;;7.37;6.70;;;;;;;15.06;100.00;99357.75;10339524;28;20209;-75
2021/08/20 22:55:10;;;;;;;9.53;7.27;;;;;;;15.00;100.00;99359.41;10339546;28;20173;-74
2021/08/20 23:00:34;;;;;;;9.20;6.77;;;;;;;15.06;100.00;99351.41;10340128;28;20173;-74
2021/08/20 23:05:53;;;;;;;8.47;7.60;;;;;;;14.88;100.00;99356.47;10339032;28;20209;-74
2021/08/20 23:11:13;;;;;;;11.43;8.70;;;;;;;14.73;100.00;99358.69;10336815;28;20695;-75
2021/08/20 23:16:32;;;;;;;9.10;8.10;;;;;;;14.65;100.00;99356.44;10339900;28;20201;-75
2021/08/20 23:21:51;;;;;;;8.70;7.27;;;;;;;14.72;100.00;99354.38;10338581;28;20177;-75
2021/08/20 23:27:09;;;;;;;8.60;7.47;;;;;;;14.65;100.00;99351.72;10337252;28;20181;-76
2021/08/20 23:32:28;;;;;;;10.17;8.30;;;;;;;14.41;100.00;99349.31;10338083;28;20256;-75
2021/08/20 23:37:47;;;;;;;9.30;7.13;;;;;;;14.39;100.00;99352.50;10338054;28;20624;-75
2021/08/20 23:43:06;;;;;;;9.63;7.73;;;;;;;14.37;100.00;99343.81;10336061;28;20221;-74
2021/08/20 23:48:25;;;;;;;8.10;7.30;;;;;;;14.29;100.00;99347.13;10338532;28;20209;-75
2021/08/20 23:53:44;;;;;;;8.07;6.90;;;;;;;14.19;100.00;99350.81;10338249;28;20280;-74
2021/08/20 23:59:03;;;;;;;9.03;7.43;;;;;;;14.15;100.00;99349.31;10335587;28;20181;-74
